Balerno, United Kingdom

5:14 PM GMT on February 08, 2016 (GMT +0000)
Mid Kinleith | | Change Station
CLOSE
Current Station
Personal Weather Station
Location: Currie, SCOTLAND
Elevation: 725 ft
Nearby Weather Stations

Elev 725 ft 55.89 °N, 3.30 °W | Updated 29 seconds ago

Overcast
Overcast
40.8 °F
Feels Like 35 °F
N
8.3
Wind Variable Wind from WNW
Gusts 14.5 mph

Today
High -- | Low -- °F
--% Chance of Precip.
Yesterday
High -- | Low -- °F
Precip. -- in
Pressure 28.77 in
Visibility 6.2 miles
Clouds Overcast 2600 ft
Windchill 35 °F
Dew Point 35 °F
Humidity 79%
Rainfall 0.00 in
Snow Depth Not available.
7:54 AM 5:00 PM
New Moon, 0% visible
METAR EGPH 081650Z AUTO 26006KT 9999 OVC026 06/03 Q0974
Pressure 28.77 in
Visibility 6.2 miles
Clouds Overcast 2600 ft
Windchill 35 °F
Dew Point 35 °F
Humidity 79%
Rainfall 0.00 in
Snow Depth Not available.
7:54 AM 5:00 PM
New Moon, 0% visible
METAR EGPH 081650Z AUTO 26006KT 9999 OVC026 06/03 Q0974

10-Day Weather Forecast

Almanac

Astronomy

Feb. 08, 2016 Rise Set
Actual Time
Civil Twilight
Nautical Twilight
Astronomical Twilight
Moon
Length of Visible Light
Length of Day
Tomorrow will be .
, % of the Moon is Illuminated

Today's Extremes

Country Highs Country Lows

Community

WunderPhotos

Upload Photos

1,891,471 photos uploaded!

WunderBlog® & News

Nearby

Air Quality

  Air Quality AQ Index Pollutant
Not available.

Snow Depth

Station Depth Elevation

Earthquake Activity

City Distance Mag. Time & Date
Minimum magnitude displayed is 2.5.

Coastal Water Temperatures

Place Temperature

Stations

Nearby Weather Stations

Station Location Temp. Windchill Dew Point Humidity Wind Precip. Elev Updated Type